sensor_id;sensor_type;location;lat;lon;timestamp;P1;durP1;ratioP1;P2;durP2;ratioP2
19016;SDS011;9641;51.494;6.670;2022-07-04T00:01:42;2.83;;;1.33;;
19016;SDS011;9641;51.494;6.670;2022-07-04T00:04:09;2.63;;;1.20;;
19016;SDS011;9641;51.494;6.670;2022-07-04T00:06:35;1.90;;;1.13;;
19016;SDS011;9641;51.494;6.670;2022-07-04T00:09:04;1.30;;;1.20;;
19016;SDS011;9641;51.494;6.670;2022-07-04T00:11:34;2.03;;;1.23;;
19016;SDS011;9641;51.494;6.670;2022-07-04T00:14:02;3.07;;;1.70;;
19016;SDS011;9641;51.494;6.670;2022-07-04T00:16:29;1.20;;;1.10;;
19016;SDS011;9641;51.494;6.670;2022-07-04T00:18:56;1.20;;;1.00;;
19016;SDS011;9641;51.494;6.670;2022-07-04T00:21:23;1.80;;;1.17;;
19016;SDS011;9641;51.494;6.670;2022-07-04T00:23:49;1.57;;;1.30;;
19016;SDS011;9641;51.494;6.670;2022-07-04T00:26:16;2.33;;;1.50;;
19016;SDS011;9641;51.494;6.670;2022-07-04T00:28:43;2.43;;;1.53;;
19016;SDS011;9641;51.494;6.670;2022-07-04T00:31:12;3.53;;;1.30;;
19016;SDS011;9641;51.494;6.670;2022-07-04T00:33:39;1.33;;;1.23;;
19016;SDS011;9641;51.494;6.670;2022-07-04T00:36:06;1.40;;;1.20;;
19016;SDS011;9641;51.494;6.670;2022-07-04T00:38:33;1.50;;;1.20;;
19016;SDS011;9641;51.494;6.670;2022-07-04T00:41:00;3.27;;;1.60;;
19016;SDS011;9641;51.494;6.670;2022-07-04T00:43:27;3.67;;;1.20;;
19016;SDS011;9641;51.494;6.670;2022-07-04T00:45:55;3.20;;;1.20;;
19016;SDS011;9641;51.494;6.670;2022-07-04T00:48:24;1.50;;;1.10;;
19016;SDS011;9641;51.494;6.670;2022-07-04T00:50:51;4.27;;;1.50;;
19016;SDS011;9641;51.494;6.670;2022-07-04T00:53:18;2.90;;;1.40;;
19016;SDS011;9641;51.494;6.670;2022-07-04T00:55:47;2.90;;;1.40;;
19016;SDS011;9641;51.494;6.670;2022-07-04T00:58:14;1.40;;;1.30;;
19016;SDS011;9641;51.494;6.670;2022-07-04T01:00:41;2.73;;;1.50;;
19016;SDS011;9641;51.494;6.670;2022-07-04T01:03:08;1.93;;;1.40;;
19016;SDS011;9641;51.494;6.670;2022-07-04T01:05:37;2.00;;;1.50;;
19016;SDS011;9641;51.494;6.670;2022-07-04T01:08:06;1.60;;;1.50;;
19016;SDS011;9641;51.494;6.670;2022-07-04T01:10:33;2.50;;;1.60;;
19016;SDS011;9641;51.494;6.670;2022-07-04T01:13:00;1.60;;;1.50;;
19016;SDS011;9641;51.494;6.670;2022-07-04T01:15:27;1.87;;;1.60;;
19016;SDS011;9641;51.494;6.670;2022-07-04T01:17:54;1.73;;;1.63;;
19016;SDS011;9641;51.494;6.670;2022-07-04T01:20:22;2.63;;;1.83;;
19016;SDS011;9641;51.494;6.670;2022-07-04T01:22:49;4.37;;;1.70;;
19016;SDS011;9641;51.494;6.670;2022-07-04T01:25:16;2.20;;;1.50;;
19016;SDS011;9641;51.494;6.670;2022-07-04T01:27:43;2.40;;;1.70;;
19016;SDS011;9641;51.494;6.670;2022-07-04T01:30:10;1.90;;;1.70;;
19016;SDS011;9641;51.494;6.670;2022-07-04T01:32:37;3.17;;;1.90;;
19016;SDS011;9641;51.494;6.670;2022-07-04T01:35:04;3.00;;;2.00;;
19016;SDS011;9641;51.494;6.670;2022-07-04T01:37:33;3.63;;;1.70;;
19016;SDS011;9641;51.494;6.670;2022-07-04T01:39:59;2.03;;;1.80;;
19016;SDS011;9641;51.494;6.670;2022-07-04T01:42:26;1.83;;;1.73;;
19016;SDS011;9641;51.494;6.670;2022-07-04T01:44:53;2.47;;;1.80;;
19016;SDS011;9641;51.494;6.670;2022-07-04T01:47:20;4.97;;;2.03;;
19016;SDS011;9641;51.494;6.670;2022-07-04T01:49:47;2.43;;;2.23;;
19016;SDS011;9641;51.494;6.670;2022-07-04T01:52:13;4.80;;;2.37;;
19016;SDS011;9641;51.494;6.670;2022-07-04T01:54:42;3.73;;;2.37;;
19016;SDS011;9641;51.494;6.670;2022-07-04T01:57:09;2.40;;;2.20;;
19016;SDS011;9641;51.494;6.670;2022-07-04T01:59:38;4.73;;;2.53;;
19016;SDS011;9641;51.494;6.670;2022-07-04T02:02:22;1.97;;;1.77;;
19016;SDS011;9641;51.494;6.670;2022-07-04T02:04:49;2.40;;;2.27;;
19016;SDS011;9641;51.494;6.670;2022-07-04T02:07:17;2.93;;;2.33;;
19016;SDS011;9641;51.494;6.670;2022-07-04T02:09:45;1.83;;;1.73;;
19016;SDS011;9641;51.494;6.670;2022-07-04T02:12:12;2.10;;;1.90;;
19016;SDS011;9641;51.494;6.670;2022-07-04T02:14:56;2.57;;;2.37;;
19016;SDS011;9641;51.494;6.670;2022-07-04T02:17:23;2.10;;;2.00;;
19016;SDS011;9641;51.494;6.670;2022-07-04T02:19:50;3.57;;;2.47;;
19016;SDS011;9641;51.494;6.670;2022-07-04T02:22:17;3.43;;;2.20;;
19016;SDS011;9641;51.494;6.670;2022-07-04T02:24:45;5.17;;;2.30;;
19016;SDS011;9641;51.494;6.670;2022-07-04T02:27:12;2.43;;;2.23;;
19016;SDS011;9641;51.494;6.670;2022-07-04T02:29:39;4.17;;;2.43;;
19016;SDS011;9641;51.494;6.670;2022-07-04T02:32:06;3.83;;;2.70;;
19016;SDS011;9641;51.494;6.670;2022-07-04T02:34:33;2.60;;;2.20;;
19016;SDS011;9641;51.494;6.670;2022-07-04T02:37:00;5.73;;;2.40;;
19016;SDS011;9641;51.494;6.670;2022-07-04T02:39:27;2.30;;;2.10;;
19016;SDS011;9641;51.494;6.670;2022-07-04T02:41:55;3.87;;;2.30;;
19016;SDS011;9641;51.494;6.670;2022-07-04T02:44:22;2.47;;;2.27;;
19016;SDS011;9641;51.494;6.670;2022-07-04T02:46:49;4.53;;;2.30;;
19016;SDS011;9641;51.494;6.670;2022-07-04T02:49:16;2.67;;;2.30;;
19016;SDS011;9641;51.494;6.670;2022-07-04T02:51:43;3.60;;;1.83;;
19016;SDS011;9641;51.494;6.670;2022-07-04T02:54:10;2.50;;;2.17;;
19016;SDS011;9641;51.494;6.670;2022-07-04T02:56:37;2.30;;;2.10;;
19016;SDS011;9641;51.494;6.670;2022-07-04T02:59:05;3.23;;;2.40;;
19016;SDS011;9641;51.494;6.670;2022-07-04T03:01:32;3.33;;;2.30;;
19016;SDS011;9641;51.494;6.670;2022-07-04T03:03:59;3.87;;;2.37;;
19016;SDS011;9641;51.494;6.670;2022-07-04T03:06:26;6.23;;;2.30;;
19016;SDS011;9641;51.494;6.670;2022-07-04T03:08:53;3.07;;;2.40;;
19016;SDS011;9641;51.494;6.670;2022-07-04T03:11:20;2.30;;;2.10;;
19016;SDS011;9641;51.494;6.670;2022-07-04T03:13:46;2.87;;;2.57;;
19016;SDS011;9641;51.494;6.670;2022-07-04T03:16:15;2.80;;;2.50;;
19016;SDS011;9641;51.494;6.670;2022-07-04T03:18:41;3.00;;;2.47;;
19016;SDS011;9641;51.494;6.670;2022-07-04T03:21:08;1.90;;;1.80;;
19016;SDS011;9641;51.494;6.670;2022-07-04T03:23:35;2.50;;;2.30;;
19016;SDS011;9641;51.494;6.670;2022-07-04T03:26:02;3.10;;;2.80;;
19016;SDS011;9641;51.494;6.670;2022-07-04T03:28:29;3.87;;;2.57;;
19016;SDS011;9641;51.494;6.670;2022-07-04T03:30:56;3.70;;;2.57;;
19016;SDS011;9641;51.494;6.670;2022-07-04T03:33:25;3.63;;;2.87;;
19016;SDS011;9641;51.494;6.670;2022-07-04T03:35:52;4.53;;;3.20;;
19016;SDS011;9641;51.494;6.670;2022-07-04T03:38:18;3.50;;;2.90;;
19016;SDS011;9641;51.494;6.670;2022-07-04T03:40:48;3.43;;;3.10;;
19016;SDS011;9641;51.494;6.670;2022-07-04T03:43:15;4.83;;;3.10;;
19016;SDS011;9641;51.494;6.670;2022-07-04T03:45:42;3.43;;;2.97;;
19016;SDS011;9641;51.494;6.670;2022-07-04T03:48:09;5.30;;;3.67;;
19016;SDS011;9641;51.494;6.670;2022-07-04T03:50:38;4.70;;;3.67;;
19016;SDS011;9641;51.494;6.670;2022-07-04T03:53:05;8.00;;;3.87;;
19016;SDS011;9641;51.494;6.670;2022-07-04T03:55:32;4.00;;;3.37;;
19016;SDS011;9641;51.494;6.670;2022-07-04T03:57:59;9.00;;;4.03;;
19016;SDS011;9641;51.494;6.670;2022-07-04T04:00:29;4.33;;;3.60;;
19016;SDS011;9641;51.494;6.670;2022-07-04T04:02:56;3.90;;;3.50;;
19016;SDS011;9641;51.494;6.670;2022-07-04T04:05:23;5.23;;;4.23;;
19016;SDS011;9641;51.494;6.670;2022-07-04T04:07:54;5.43;;;3.90;;
19016;SDS011;9641;51.494;6.670;2022-07-04T04:10:21;5.67;;;3.90;;
19016;SDS011;9641;51.494;6.670;2022-07-04T04:12:49;4.10;;;3.70;;
19016;SDS011;9641;51.494;6.670;2022-07-04T04:15:16;4.63;;;3.73;;
19016;SDS011;9641;51.494;6.670;2022-07-04T04:17:43;5.40;;;3.33;;
19016;SDS011;9641;51.494;6.670;2022-07-04T04:20:10;7.20;;;3.50;;
19016;SDS011;9641;51.494;6.670;2022-07-04T04:22:37;7.07;;;4.00;;
19016;SDS011;9641;51.494;6.670;2022-07-04T04:25:06;6.53;;;4.20;;
19016;SDS011;9641;51.494;6.670;2022-07-04T04:27:33;9.03;;;4.10;;
19016;SDS011;9641;51.494;6.670;2022-07-04T04:30:00;5.20;;;4.10;;
19016;SDS011;9641;51.494;6.670;2022-07-04T04:32:27;4.37;;;3.70;;
19016;SDS011;9641;51.494;6.670;2022-07-04T04:34:54;5.60;;;4.10;;
19016;SDS011;9641;51.494;6.670;2022-07-04T04:37:21;4.97;;;4.47;;
19016;SDS011;9641;51.494;6.670;2022-07-04T04:39:48;7.20;;;4.30;;
19016;SDS011;9641;51.494;6.670;2022-07-04T04:42:16;5.53;;;4.77;;
19016;SDS011;9641;51.494;6.670;2022-07-04T04:44:43;5.63;;;4.50;;
19016;SDS011;9641;51.494;6.670;2022-07-04T04:47:10;8.13;;;4.80;;
19016;SDS011;9641;51.494;6.670;2022-07-04T04:49:36;6.17;;;4.67;;
19016;SDS011;9641;51.494;6.670;2022-07-04T04:52:03;7.67;;;4.27;;
19016;SDS011;9641;51.494;6.670;2022-07-04T04:54:31;5.10;;;4.60;;
19016;SDS011;9641;51.494;6.670;2022-07-04T04:56:58;6.30;;;4.67;;
19016;SDS011;9641;51.494;6.670;2022-07-04T04:59:27;7.10;;;4.10;;
19016;SDS011;9641;51.494;6.670;2022-07-04T05:01:54;7.67;;;4.30;;
19016;SDS011;9641;51.494;6.670;2022-07-04T05:04:21;6.83;;;5.07;;
19016;SDS011;9641;51.494;6.670;2022-07-04T05:06:48;11.20;;;5.40;;
19016;SDS011;9641;51.494;6.670;2022-07-04T05:09:15;9.90;;;4.60;;
19016;SDS011;9641;51.494;6.670;2022-07-04T05:11:42;6.07;;;4.00;;
19016;SDS011;9641;51.494;6.670;2022-07-04T05:14:09;11.70;;;4.70;;
19016;SDS011;9641;51.494;6.670;2022-07-04T05:16:37;17.57;;;6.27;;
19016;SDS011;9641;51.494;6.670;2022-07-04T05:19:04;11.50;;;6.50;;
19016;SDS011;9641;51.494;6.670;2022-07-04T05:21:31;11.37;;;6.67;;
19016;SDS011;9641;51.494;6.670;2022-07-04T05:23:58;7.93;;;6.07;;
19016;SDS011;9641;51.494;6.670;2022-07-04T05:26:25;10.80;;;6.10;;
19016;SDS011;9641;51.494;6.670;2022-07-04T05:28:52;8.83;;;5.73;;
19016;SDS011;9641;51.494;6.670;2022-07-04T05:31:20;9.83;;;5.00;;
19016;SDS011;9641;51.494;6.670;2022-07-04T05:33:51;8.93;;;5.37;;
19016;SDS011;9641;51.494;6.670;2022-07-04T05:36:17;11.10;;;5.70;;
19016;SDS011;9641;51.494;6.670;2022-07-04T05:38:45;8.67;;;5.77;;
19016;SDS011;9641;51.494;6.670;2022-07-04T05:41:12;9.93;;;5.30;;
19016;SDS011;9641;51.494;6.670;2022-07-04T05:43:39;9.90;;;4.53;;
19016;SDS011;9641;51.494;6.670;2022-07-04T05:46:06;7.20;;;3.70;;
19016;SDS011;9641;51.494;6.670;2022-07-04T05:48:33;9.37;;;3.70;;
19016;SDS011;9641;51.494;6.670;2022-07-04T05:51:02;8.97;;;4.70;;
19016;SDS011;9641;51.494;6.670;2022-07-04T05:53:29;8.97;;;5.10;;
19016;SDS011;9641;51.494;6.670;2022-07-04T05:55:56;9.03;;;4.10;;
19016;SDS011;9641;51.494;6.670;2022-07-04T05:58:23;6.77;;;4.23;;
19016;SDS011;9641;51.494;6.670;2022-07-04T06:00:50;6.70;;;3.77;;
19016;SDS011;9641;51.494;6.670;2022-07-04T06:03:17;5.63;;;3.73;;
19016;SDS011;9641;51.494;6.670;2022-07-04T06:05:44;5.37;;;3.50;;
19016;SDS011;9641;51.494;6.670;2022-07-04T06:08:12;5.03;;;3.67;;
19016;SDS011;9641;51.494;6.670;2022-07-04T06:10:39;4.37;;;3.50;;
19016;SDS011;9641;51.494;6.670;2022-07-04T06:13:05;3.80;;;3.43;;
19016;SDS011;9641;51.494;6.670;2022-07-04T06:15:32;5.90;;;3.00;;
19016;SDS011;9641;51.494;6.670;2022-07-04T06:17:59;4.20;;;3.03;;
19016;SDS011;9641;51.494;6.670;2022-07-04T06:20:27;10.17;;;2.87;;
19016;SDS011;9641;51.494;6.670;2022-07-04T06:22:55;8.23;;;2.80;;
19016;SDS011;9641;51.494;6.670;2022-07-04T06:25:23;8.27;;;2.77;;
19016;SDS011;9641;51.494;6.670;2022-07-04T06:27:50;4.37;;;2.60;;
19016;SDS011;9641;51.494;6.670;2022-07-04T06:30:17;4.93;;;2.53;;
19016;SDS011;9641;51.494;6.670;2022-07-04T06:32:45;5.33;;;2.27;;
19016;SDS011;9641;51.494;6.670;2022-07-04T06:35:13;4.57;;;2.40;;
19016;SDS011;9641;51.494;6.670;2022-07-04T06:38:00;2.63;;;2.10;;
19016;SDS011;9641;51.494;6.670;2022-07-04T06:40:29;3.43;;;2.30;;
19016;SDS011;9641;51.494;6.670;2022-07-04T06:42:55;5.23;;;2.30;;
19016;SDS011;9641;51.494;6.670;2022-07-04T06:45:22;2.00;;;1.90;;
19016;SDS011;9641;51.494;6.670;2022-07-04T06:47:49;2.87;;;2.03;;
19016;SDS011;9641;51.494;6.670;2022-07-04T06:50:16;3.77;;;1.93;;
19016;SDS011;9641;51.494;6.670;2022-07-04T06:52:44;3.17;;;2.30;;
19016;SDS011;9641;51.494;6.670;2022-07-04T06:55:11;2.50;;;2.10;;
19016;SDS011;9641;51.494;6.670;2022-07-04T06:57:39;1.80;;;1.60;;
19016;SDS011;9641;51.494;6.670;2022-07-04T07:00:06;2.73;;;1.53;;
19016;SDS011;9641;51.494;6.670;2022-07-04T07:02:34;3.37;;;1.70;;
19016;SDS011;9641;51.494;6.670;2022-07-04T07:05:02;1.90;;;1.53;;
19016;SDS011;9641;51.494;6.670;2022-07-04T07:07:29;1.77;;;1.57;;
19016;SDS011;9641;51.494;6.670;2022-07-04T07:09:59;3.17;;;1.50;;
19016;SDS011;9641;51.494;6.670;2022-07-04T07:12:28;3.17;;;1.67;;
19016;SDS011;9641;51.494;6.670;2022-07-04T07:14:57;1.10;;;1.10;;
19016;SDS011;9641;51.494;6.670;2022-07-04T07:17:24;1.33;;;1.20;;
19016;SDS011;9641;51.494;6.670;2022-07-04T07:19:51;1.70;;;1.20;;
19016;SDS011;9641;51.494;6.670;2022-07-04T07:22:18;2.90;;;1.40;;
19016;SDS011;9641;51.494;6.670;2022-07-04T07:24:46;1.50;;;1.10;;
19016;SDS011;9641;51.494;6.670;2022-07-04T07:27:13;2.70;;;1.23;;
19016;SDS011;9641;51.494;6.670;2022-07-04T07:29:40;8.40;;;2.10;;
19016;SDS011;9641;51.494;6.670;2022-07-04T07:32:08;1.33;;;1.17;;
19016;SDS011;9641;51.494;6.670;2022-07-04T07:34:35;3.73;;;1.00;;
19016;SDS011;9641;51.494;6.670;2022-07-04T07:37:02;3.30;;;1.10;;
19016;SDS011;9641;51.494;6.670;2022-07-04T07:39:29;1.00;;;0.90;;
19016;SDS011;9641;51.494;6.670;2022-07-04T07:41:56;1.77;;;0.90;;
19016;SDS011;9641;51.494;6.670;2022-07-04T07:44:23;2.87;;;1.00;;
19016;SDS011;9641;51.494;6.670;2022-07-04T07:46:50;1.10;;;0.80;;
19016;SDS011;9641;51.494;6.670;2022-07-04T07:49:18;1.90;;;0.70;;
19016;SDS011;9641;51.494;6.670;2022-07-04T07:51:45;2.10;;;1.20;;
19016;SDS011;9641;51.494;6.670;2022-07-04T07:54:12;4.03;;;0.87;;
19016;SDS011;9641;51.494;6.670;2022-07-04T07:56:38;0.67;;;0.67;;
19016;SDS011;9641;51.494;6.670;2022-07-04T07:59:05;1.27;;;0.60;;
19016;SDS011;9641;51.494;6.670;2022-07-04T08:01:32;2.33;;;0.87;;
19016;SDS011;9641;51.494;6.670;2022-07-04T08:03:59;2.13;;;0.90;;
19016;SDS011;9641;51.494;6.670;2022-07-04T08:06:45;1.87;;;0.60;;
19016;SDS011;9641;51.494;6.670;2022-07-04T08:09:12;1.80;;;0.67;;
19016;SDS011;9641;51.494;6.670;2022-07-04T08:11:40;1.80;;;0.83;;
19016;SDS011;9641;51.494;6.670;2022-07-04T08:14:07;4.87;;;1.00;;
19016;SDS011;9641;51.494;6.670;2022-07-04T08:16:34;0.60;;;0.60;;
19016;SDS011;9641;51.494;6.670;2022-07-04T08:19:02;3.00;;;0.80;;
19016;SDS011;9641;51.494;6.670;2022-07-04T08:21:29;1.07;;;0.90;;
19016;SDS011;9641;51.494;6.670;2022-07-04T08:23:57;1.13;;;0.77;;
19016;SDS011;9641;51.494;6.670;2022-07-04T08:26:24;4.93;;;0.70;;
19016;SDS011;9641;51.494;6.670;2022-07-04T08:28:51;1.80;;;0.90;;
19016;SDS011;9641;51.494;6.670;2022-07-04T08:31:20;0.77;;;0.67;;
19016;SDS011;9641;51.494;6.670;2022-07-04T08:33:47;2.33;;;0.80;;
19016;SDS011;9641;51.494;6.670;2022-07-04T08:36:14;2.20;;;0.80;;
19016;SDS011;9641;51.494;6.670;2022-07-04T08:38:40;4.90;;;0.90;;
19016;SDS011;9641;51.494;6.670;2022-07-04T08:41:09;0.67;;;0.67;;
19016;SDS011;9641;51.494;6.670;2022-07-04T08:43:36;0.80;;;0.77;;
19016;SDS011;9641;51.494;6.670;2022-07-04T08:46:04;1.07;;;0.70;;
19016;SDS011;9641;51.494;6.670;2022-07-04T08:48:32;1.73;;;0.57;;
19016;SDS011;9641;51.494;6.670;2022-07-04T08:51:01;1.90;;;0.80;;
19016;SDS011;9641;51.494;6.670;2022-07-04T08:53:33;1.57;;;0.80;;
19016;SDS011;9641;51.494;6.670;2022-07-04T08:56:06;1.80;;;0.80;;
19016;SDS011;9641;51.494;6.670;2022-07-04T08:58:53;2.40;;;0.70;;
19016;SDS011;9641;51.494;6.670;2022-07-04T09:01:22;0.43;;;0.40;;
19016;SDS011;9641;51.494;6.670;2022-07-04T09:03:50;4.83;;;0.90;;
19016;SDS011;9641;51.494;6.670;2022-07-04T09:06:17;2.77;;;0.90;;
19016;SDS011;9641;51.494;6.670;2022-07-04T09:08:44;2.03;;;0.80;;
19016;SDS011;9641;51.494;6.670;2022-07-04T09:11:11;1.73;;;0.70;;
19016;SDS011;9641;51.494;6.670;2022-07-04T09:13:38;3.93;;;0.70;;
19016;SDS011;9641;51.494;6.670;2022-07-04T09:16:06;3.67;;;0.80;;
19016;SDS011;9641;51.494;6.670;2022-07-04T09:18:34;3.17;;;0.83;;
19016;SDS011;9641;51.494;6.670;2022-07-04T09:21:02;1.07;;;0.83;;
19016;SDS011;9641;51.494;6.670;2022-07-04T09:23:32;1.33;;;0.70;;
19016;SDS011;9641;51.494;6.670;2022-07-04T09:26:07;0.90;;;0.60;;
19016;SDS011;9641;51.494;6.670;2022-07-04T09:28:39;2.63;;;0.70;;
19016;SDS011;9641;51.494;6.670;2022-07-04T09:31:16;2.13;;;0.93;;
19016;SDS011;9641;51.494;6.670;2022-07-04T09:33:46;1.00;;;0.73;;
19016;SDS011;9641;51.494;6.670;2022-07-04T09:36:15;2.05;;;0.60;;
19016;SDS011;9641;51.494;6.670;2022-07-04T09:38:43;3.97;;;1.00;;
19016;SDS011;9641;51.494;6.670;2022-07-04T09:41:10;0.98;;;0.60;;
19016;SDS011;9641;51.494;6.670;2022-07-04T09:43:58;1.33;;;0.80;;
19016;SDS011;9641;51.494;6.670;2022-07-04T09:46:29;1.53;;;0.70;;
19016;SDS011;9641;51.494;6.670;2022-07-04T09:48:56;0.93;;;0.60;;
19016;SDS011;9641;51.494;6.670;2022-07-04T09:51:36;2.83;;;0.90;;
19016;SDS011;9641;51.494;6.670;2022-07-04T09:54:15;4.18;;;0.80;;
19016;SDS011;9641;51.494;6.670;2022-07-04T09:56:44;2.22;;;0.68;;
19016;SDS011;9641;51.494;6.670;2022-07-04T09:59:12;2.03;;;0.60;;
19016;SDS011;9641;51.494;6.670;2022-07-04T10:01:40;1.70;;;0.77;;
19016;SDS011;9641;51.494;6.670;2022-07-04T10:04:07;2.78;;;0.80;;
19016;SDS011;9641;51.494;6.670;2022-07-04T10:06:34;1.35;;;0.80;;
19016;SDS011;9641;51.494;6.670;2022-07-04T10:09:06;2.08;;;0.80;;
19016;SDS011;9641;51.494;6.670;2022-07-04T10:11:34;1.13;;;0.80;;
19016;SDS011;9641;51.494;6.670;2022-07-04T10:14:03;2.90;;;0.82;;
19016;SDS011;9641;51.494;6.670;2022-07-04T10:16:31;1.45;;;0.60;;
19016;SDS011;9641;51.494;6.670;2022-07-04T10:19:00;1.85;;;0.77;;
19016;SDS011;9641;51.494;6.670;2022-07-04T10:21:27;0.82;;;0.60;;
19016;SDS011;9641;51.494;6.670;2022-07-04T10:23:54;0.88;;;0.60;;
19016;SDS011;9641;51.494;6.670;2022-07-04T10:26:21;2.75;;;0.80;;
19016;SDS011;9641;51.494;6.670;2022-07-04T10:28:49;4.22;;;1.05;;
19016;SDS011;9641;51.494;6.670;2022-07-04T10:31:17;0.63;;;0.63;;
19016;SDS011;9641;51.494;6.670;2022-07-04T10:33:45;1.05;;;0.80;;
19016;SDS011;9641;51.494;6.670;2022-07-04T10:36:15;0.93;;;0.73;;
19016;SDS011;9641;51.494;6.670;2022-07-04T10:38:47;1.15;;;0.60;;
19016;SDS011;9641;51.494;6.670;2022-07-04T10:41:16;3.58;;;0.77;;
19016;SDS011;9641;51.494;6.670;2022-07-04T10:46:47;2.03;;;0.93;;
19016;SDS011;9641;51.494;6.670;2022-07-04T10:49:19;2.13;;;0.73;;
19016;SDS011;9641;51.494;6.670;2022-07-04T10:51:49;2.83;;;0.70;;
19016;SDS011;9641;51.494;6.670;2022-07-04T10:54:17;1.58;;;0.60;;
19016;SDS011;9641;51.494;6.670;2022-07-04T10:56:49;0.70;;;0.70;;
19016;SDS011;9641;51.494;6.670;2022-07-04T10:59:19;1.13;;;0.70;;
19016;SDS011;9641;51.494;6.670;2022-07-04T11:02:00;1.25;;;0.98;;
19016;SDS011;9641;51.494;6.670;2022-07-04T11:05:04;1.33;;;0.82;;
19016;SDS011;9641;51.494;6.670;2022-07-04T11:10:24;2.03;;;0.70;;
19016;SDS011;9641;51.494;6.670;2022-07-04T11:13:07;1.85;;;0.60;;
19016;SDS011;9641;51.494;6.670;2022-07-04T11:16:04;0.47;;;0.47;;
19016;SDS011;9641;51.494;6.670;2022-07-04T11:18:42;0.82;;;0.80;;
19016;SDS011;9641;51.494;6.670;2022-07-04T11:21:17;0.65;;;0.50;;
19016;SDS011;9641;51.494;6.670;2022-07-04T11:23:51;5.15;;;0.68;;
19016;SDS011;9641;51.494;6.670;2022-07-04T11:26:19;1.10;;;0.60;;
19016;SDS011;9641;51.494;6.670;2022-07-04T11:28:47;0.80;;;0.60;;
19016;SDS011;9641;51.494;6.670;2022-07-04T11:31:14;2.10;;;0.52;;
19016;SDS011;9641;51.494;6.670;2022-07-04T11:33:42;0.30;;;0.30;;
19016;SDS011;9641;51.494;6.670;2022-07-04T11:36:11;0.65;;;0.43;;
19016;SDS011;9641;51.494;6.670;2022-07-04T11:38:44;0.80;;;0.55;;
19016;SDS011;9641;51.494;6.670;2022-07-04T11:41:13;0.75;;;0.45;;
19016;SDS011;9641;51.494;6.670;2022-07-04T11:43:59;1.30;;;0.55;;
19016;SDS011;9641;51.494;6.670;2022-07-04T11:46:47;1.33;;;0.50;;
19016;SDS011;9641;51.494;6.670;2022-07-04T11:49:15;1.25;;;0.70;;
19016;SDS011;9641;51.494;6.670;2022-07-04T11:51:42;1.85;;;0.68;;
19016;SDS011;9641;51.494;6.670;2022-07-04T11:54:10;1.33;;;0.80;;
19016;SDS011;9641;51.494;6.670;2022-07-04T11:56:38;1.17;;;0.50;;
19016;SDS011;9641;51.494;6.670;2022-07-04T11:59:11;2.53;;;0.60;;
19016;SDS011;9641;51.494;6.670;2022-07-04T12:01:41;2.58;;;0.60;;
19016;SDS011;9641;51.494;6.670;2022-07-04T12:04:12;2.10;;;0.60;;
19016;SDS011;9641;51.494;6.670;2022-07-04T12:06:46;3.13;;;0.55;;
19016;SDS011;9641;51.494;6.670;2022-07-04T12:09:15;0.65;;;0.50;;
19016;SDS011;9641;51.494;6.670;2022-07-04T12:11:56;1.20;;;0.50;;
19016;SDS011;9641;51.494;6.670;2022-07-04T12:14:37;0.77;;;0.40;;
19016;SDS011;9641;51.494;6.670;2022-07-04T12:17:09;1.10;;;0.55;;
19016;SDS011;9641;51.494;6.670;2022-07-04T12:19:49;0.85;;;0.50;;
19016;SDS011;9641;51.494;6.670;2022-07-04T12:22:27;2.00;;;0.60;;
19016;SDS011;9641;51.494;6.670;2022-07-04T12:24:56;0.77;;;0.40;;
19016;SDS011;9641;51.494;6.670;2022-07-04T12:27:25;0.93;;;0.47;;
19016;SDS011;9641;51.494;6.670;2022-07-04T12:29:53;3.13;;;0.80;;
19016;SDS011;9641;51.494;6.670;2022-07-04T12:32:45;1.08;;;0.45;;
19016;SDS011;9641;51.494;6.670;2022-07-04T12:38:13;1.88;;;0.30;;
19016;SDS011;9641;51.494;6.670;2022-07-04T12:40:54;0.50;;;0.30;;
19016;SDS011;9641;51.494;6.670;2022-07-04T12:43:25;2.28;;;0.73;;
19016;SDS011;9641;51.494;6.670;2022-07-04T12:45:54;1.85;;;0.50;;
19016;SDS011;9641;51.494;6.670;2022-07-04T12:48:22;0.63;;;0.43;;
19016;SDS011;9641;51.494;6.670;2022-07-04T12:50:51;1.10;;;0.40;;
19016;SDS011;9641;51.494;6.670;2022-07-04T12:53:19;0.93;;;0.55;;
19016;SDS011;9641;51.494;6.670;2022-07-04T12:55:47;1.27;;;0.55;;
19016;SDS011;9641;51.494;6.670;2022-07-04T12:58:26;0.93;;;0.40;;
19016;SDS011;9641;51.494;6.670;2022-07-04T13:00:53;0.45;;;0.30;;
19016;SDS011;9641;51.494;6.670;2022-07-04T13:03:19;0.35;;;0.30;;
19016;SDS011;9641;51.494;6.670;2022-07-04T13:05:46;0.93;;;0.47;;
19016;SDS011;9641;51.494;6.670;2022-07-04T13:08:13;0.60;;;0.43;;
19016;SDS011;9641;51.494;6.670;2022-07-04T13:10:40;0.70;;;0.50;;
19016;SDS011;9641;51.494;6.670;2022-07-04T13:13:07;1.40;;;0.32;;
19016;SDS011;9641;51.494;6.670;2022-07-04T13:15:36;0.85;;;0.40;;
19016;SDS011;9641;51.494;6.670;2022-07-04T13:18:03;0.40;;;0.40;;
19016;SDS011;9641;51.494;6.670;2022-07-04T13:20:30;0.35;;;0.30;;
19016;SDS011;9641;51.494;6.670;2022-07-04T13:22:57;1.58;;;0.40;;
19016;SDS011;9641;51.494;6.670;2022-07-04T13:25:24;0.95;;;0.55;;
19016;SDS011;9641;51.494;6.670;2022-07-04T13:27:51;1.02;;;0.40;;
19016;SDS011;9641;51.494;6.670;2022-07-04T13:30:18;2.03;;;0.70;;
19016;SDS011;9641;51.494;6.670;2022-07-04T13:32:46;1.33;;;0.50;;
19016;SDS011;9641;51.494;6.670;2022-07-04T13:35:14;0.57;;;0.20;;
19016;SDS011;9641;51.494;6.670;2022-07-04T13:37:41;0.95;;;0.40;;
19016;SDS011;9641;51.494;6.670;2022-07-04T13:40:08;1.65;;;0.50;;
19016;SDS011;9641;51.494;6.670;2022-07-04T13:42:35;0.57;;;0.30;;
19016;SDS011;9641;51.494;6.670;2022-07-04T13:45:19;0.90;;;0.38;;
19016;SDS011;9641;51.494;6.670;2022-07-04T13:47:48;3.50;;;0.40;;
19016;SDS011;9641;51.494;6.670;2022-07-04T13:50:15;0.25;;;0.25;;
19016;SDS011;9641;51.494;6.670;2022-07-04T13:52:42;1.05;;;0.40;;
19016;SDS011;9641;51.494;6.670;2022-07-04T13:55:09;2.28;;;0.50;;
19016;SDS011;9641;51.494;6.670;2022-07-04T13:57:36;2.45;;;0.40;;
19016;SDS011;9641;51.494;6.670;2022-07-04T14:00:04;0.73;;;0.50;;
19016;SDS011;9641;51.494;6.670;2022-07-04T14:02:32;0.60;;;0.32;;
19016;SDS011;9641;51.494;6.670;2022-07-04T14:05:02;0.30;;;0.30;;
19016;SDS011;9641;51.494;6.670;2022-07-04T14:07:30;1.25;;;0.50;;
19016;SDS011;9641;51.494;6.670;2022-07-04T14:09:58;1.20;;;0.40;;
19016;SDS011;9641;51.494;6.670;2022-07-04T14:12:25;1.90;;;0.65;;
19016;SDS011;9641;51.494;6.670;2022-07-04T14:14:52;1.58;;;0.60;;
19016;SDS011;9641;51.494;6.670;2022-07-04T14:17:20;0.68;;;0.55;;
19016;SDS011;9641;51.494;6.670;2022-07-04T14:19:46;0.90;;;0.22;;
19016;SDS011;9641;51.494;6.670;2022-07-04T14:22:15;0.40;;;0.40;;
19016;SDS011;9641;51.494;6.670;2022-07-04T14:24:42;1.27;;;0.50;;
19016;SDS011;9641;51.494;6.670;2022-07-04T14:27:08;1.63;;;0.63;;
19016;SDS011;9641;51.494;6.670;2022-07-04T14:29:35;1.40;;;0.68;;
19016;SDS011;9641;51.494;6.670;2022-07-04T14:32:02;1.02;;;0.68;;
19016;SDS011;9641;51.494;6.670;2022-07-04T14:34:30;0.55;;;0.50;;
19016;SDS011;9641;51.494;6.670;2022-07-04T14:36:57;1.58;;;0.68;;
19016;SDS011;9641;51.494;6.670;2022-07-04T14:39:25;0.85;;;0.65;;
19016;SDS011;9641;51.494;6.670;2022-07-04T14:41:52;1.92;;;0.65;;
19016;SDS011;9641;51.494;6.670;2022-07-04T14:44:19;1.55;;;0.47;;
19016;SDS011;9641;51.494;6.670;2022-07-04T14:46:46;1.40;;;0.90;;
19016;SDS011;9641;51.494;6.670;2022-07-04T14:49:13;0.90;;;0.50;;
19016;SDS011;9641;51.494;6.670;2022-07-04T14:51:40;2.00;;;0.88;;
19016;SDS011;9641;51.494;6.670;2022-07-04T14:54:07;0.85;;;0.57;;
19016;SDS011;9641;51.494;6.670;2022-07-04T14:56:36;1.00;;;0.50;;
19016;SDS011;9641;51.494;6.670;2022-07-04T14:59:05;4.30;;;0.50;;
19016;SDS011;9641;51.494;6.670;2022-07-04T15:01:32;1.02;;;0.50;;
19016;SDS011;9641;51.494;6.670;2022-07-04T15:03:59;2.28;;;0.55;;
19016;SDS011;9641;51.494;6.670;2022-07-04T15:06:26;1.30;;;0.60;;
19016;SDS011;9641;51.494;6.670;2022-07-04T15:08:53;2.92;;;0.80;;
19016;SDS011;9641;51.494;6.670;2022-07-04T15:11:20;1.33;;;0.50;;
19016;SDS011;9641;51.494;6.670;2022-07-04T15:13:48;1.80;;;0.60;;
19016;SDS011;9641;51.494;6.670;2022-07-04T15:16:16;1.75;;;0.68;;
19016;SDS011;9641;51.494;6.670;2022-07-04T15:18:43;3.13;;;0.82;;